createdAt,value
2017-09-26T00:03:01.678Z,11.8
2017-09-26T00:08:02.166Z,11.6
2017-09-26T00:13:02.359Z,11.9
2017-09-26T00:18:02.683Z,10.7
2017-09-26T00:23:04.906Z,12.1
2017-09-26T00:28:03.352Z,11.9
2017-09-26T00:33:03.712Z,11.5
2017-09-26T00:38:04.069Z,11.2
2017-09-26T00:43:13.655Z,11.6
2017-09-26T00:48:04.720Z,11.7
2017-09-26T00:53:05.058Z,13.4
2017-09-26T00:58:05.407Z,12.9
2017-09-26T01:03:05.986Z,12.5
2017-09-26T01:08:06.043Z,13.8
2017-09-26T01:13:06.384Z,12.5
2017-09-26T01:18:06.709Z,12.5
2017-09-26T01:23:07.069Z,13.2
2017-09-26T01:28:07.408Z,14.6
2017-09-26T01:33:07.725Z,13.7
2017-09-26T01:38:09.250Z,13.6
2017-09-26T01:43:08.421Z,12.8
2017-09-26T01:48:08.754Z,13.6
2017-09-26T01:53:09.095Z,14.6
2017-09-26T01:58:10.719Z,13.6
2017-09-26T02:03:09.743Z,13.5
2017-09-26T02:13:10.454Z,14.2
2017-09-26T02:18:12.883Z,13.8
2017-09-26T02:23:11.090Z,14.3
2017-09-26T02:28:12.529Z,14.3
2017-09-26T02:33:11.765Z,15.9
2017-09-26T02:38:12.125Z,15.2
2017-09-26T02:43:12.465Z,14.8
2017-09-26T02:48:12.774Z,14.4
2017-09-26T02:53:13.192Z,14.6
2017-09-26T02:58:15.202Z,14.1
2017-09-26T03:03:13.808Z,13.8
2017-09-26T03:08:14.138Z,15
2017-09-26T03:13:14.488Z,13.8
2017-09-26T03:18:14.939Z,13.6
2017-09-26T03:23:15.162Z,14.3
2017-09-26T03:28:15.511Z,14.5
2017-09-26T03:33:27.759Z,13.8
2017-09-26T03:38:16.167Z,14.1
2017-09-26T03:43:16.507Z,14.3
2017-09-26T03:48:16.812Z,13.9
2017-09-26T03:53:17.171Z,13.3
2017-09-26T03:58:20.955Z,14.3
2017-09-26T04:03:17.830Z,14.7
2017-09-26T04:08:19.443Z,13.2
2017-09-26T04:13:19.356Z,13.7
2017-09-26T04:18:18.853Z,15.1
2017-09-26T04:23:19.200Z,14.3
2017-09-26T04:28:19.527Z,14.9
2017-09-26T04:33:19.863Z,13.7
2017-09-26T04:38:20.291Z,13.2
2017-09-26T04:43:20.534Z,13.8
2017-09-26T04:48:20.869Z,13.3
2017-09-26T04:53:21.204Z,13.6
2017-09-26T04:58:21.539Z,12.4
2017-09-26T05:03:21.854Z,13.2
2017-09-26T05:08:22.218Z,13.8
2017-09-26T05:13:22.541Z,13.8
2017-09-26T05:18:25.283Z,13.9
2017-09-26T05:23:23.202Z,12.9
2017-09-26T05:28:23.674Z,12.4
2017-09-26T05:33:23.913Z,13.7
2017-09-26T05:38:24.224Z,13
2017-09-26T05:43:24.574Z,11.8
2017-09-26T05:48:34.788Z,13.8
2017-09-26T05:53:25.240Z,13.6
2017-09-26T05:58:34.974Z,14
2017-09-26T06:03:25.916Z,12.6
2017-09-26T06:08:26.249Z,13.8
2017-09-26T06:13:26.591Z,12.1
2017-09-26T06:18:26.901Z,12.2
2017-09-26T06:23:27.258Z,11.3
2017-09-26T06:28:27.594Z,12.2
2017-09-26T06:33:27.934Z,13.2
2017-09-26T06:38:28.272Z,11.4
2017-09-26T06:43:31.360Z,12.8
2017-09-26T06:48:28.933Z,11.5
2017-09-26T06:53:29.275Z,11.1
2017-09-26T06:58:29.590Z,11.4
2017-09-26T07:03:29.940Z,11.5
2017-09-26T07:13:38.577Z,12.2
2017-09-26T07:18:38.914Z,12.8
2017-09-26T07:23:39.241Z,10.8
2017-09-26T07:28:39.586Z,11.5
2017-09-26T07:33:39.912Z,10.6
2017-09-26T07:38:40.249Z,11.4
2017-09-26T07:43:40.805Z,12.4
2017-09-26T07:48:42.818Z,10.7
2017-09-26T07:53:41.270Z,10.4
2017-09-26T07:58:44.016Z,10.8
2017-09-26T08:08:51.625Z,12.2
2017-09-26T08:13:52.493Z,10.6
2017-09-26T08:18:50.171Z,10.9
2017-09-26T08:23:50.491Z,12.1
2017-09-26T08:28:50.848Z,11.2
2017-09-26T08:33:51.181Z,11.9
2017-09-26T08:38:51.521Z,11.2
2017-09-26T08:43:51.842Z,9.9
2017-09-26T08:48:55.211Z,10.8
2017-09-26T08:53:52.532Z,9.8
2017-09-26T08:58:53.960Z,11
2017-09-26T09:03:53.212Z,11.2
2017-09-26T09:08:53.550Z,10.4
2017-09-26T09:13:53.884Z,11
2017-09-26T09:18:54.220Z,11.4
2017-09-26T09:23:54.527Z,10.4
2017-09-26T09:29:10.911Z,10.2
2017-09-26T09:33:55.225Z,11
2017-09-26T09:38:55.554Z,11.8
2017-09-26T09:43:58.481Z,10.3
2017-09-26T09:48:57.038Z,10.8
2017-09-26T09:53:56.560Z,11
2017-09-26T09:58:56.917Z,10.5
2017-09-26T10:03:57.257Z,9.8
2017-09-26T10:08:57.565Z,10.1
2017-09-26T10:13:57.920Z,10.5
2017-09-26T10:24:06.927Z,11
2017-09-26T10:29:07.261Z,10.8
2017-09-26T10:34:07.806Z,10
2017-09-26T10:39:07.935Z,9.6
2017-09-26T10:44:08.261Z,9.5
2017-09-26T10:49:08.607Z,10.7
2017-09-26T10:54:08.935Z,9.9
2017-09-26T10:59:09.284Z,9.4
2017-09-26T11:04:09.600Z,9.9
2017-09-26T11:09:09.959Z,9
2017-09-26T11:14:10.897Z,10
2017-09-26T11:19:10.629Z,8.4
2017-09-26T11:24:12.261Z,11.1
2017-09-26T11:29:11.285Z,9
2017-09-26T11:34:11.639Z,9.1
2017-09-26T11:39:11.972Z,9.3
2017-09-26T11:44:12.307Z,9.2
2017-09-26T11:49:12.631Z,9.3
2017-09-26T11:54:24.319Z,7.5
2017-09-26T11:59:13.388Z,8.4
2017-09-26T12:04:13.645Z,9.1
2017-09-26T12:09:13.974Z,8.9
2017-09-26T12:19:22.717Z,8.7
2017-09-26T12:24:23.051Z,8.1
2017-09-26T12:29:23.408Z,7.9
2017-09-26T12:34:23.756Z,7.9
2017-09-26T12:39:24.060Z,8.1
2017-09-26T12:44:24.418Z,8.1
2017-09-26T12:49:24.734Z,7
2017-09-26T12:54:25.080Z,7.4
2017-09-26T12:59:25.427Z,7.1
2017-09-26T13:04:25.762Z,7.4
2017-09-26T13:09:26.099Z,7.9
2017-09-26T13:14:26.440Z,7.4
2017-09-26T13:19:26.758Z,6.9
2017-09-26T13:24:27.109Z,7.6
2017-09-26T13:29:27.433Z,7.1
2017-09-26T13:34:27.772Z,6.6
2017-09-26T13:39:41.415Z,7
2017-09-26T13:44:28.453Z,5.8
2017-09-26T13:49:28.763Z,7.6
2017-09-26T13:54:29.865Z,5.7
2017-09-26T13:59:29.466Z,6.1
2017-09-26T14:04:29.800Z,5.7
2017-09-26T14:09:32.051Z,6.2
2017-09-26T14:14:31.037Z,6.5
2017-09-26T14:19:30.924Z,5.8
2017-09-26T14:24:31.335Z,6.3
2017-09-26T14:29:31.488Z,6.1
2017-09-26T14:34:31.835Z,5.2
2017-09-26T14:39:32.160Z,6.3
2017-09-26T14:44:32.479Z,5.7
2017-09-26T14:49:33.382Z,5.8
2017-09-26T14:54:45.331Z,5.8
2017-09-26T14:59:47.808Z,6.1
2017-09-26T15:04:33.816Z,5.4
2017-09-26T15:09:34.176Z,5.2
2017-09-26T15:14:37.339Z,6
2017-09-26T15:19:34.825Z,4.8
2017-09-26T15:24:35.188Z,5.5
2017-09-26T15:29:35.505Z,6
2017-09-26T15:34:35.869Z,6.3
2017-09-26T15:39:36.190Z,4.9
2017-09-26T15:44:40.560Z,5.3
2017-09-26T15:49:36.866Z,5.8
2017-09-26T15:54:37.203Z,5.2
2017-09-26T15:59:37.529Z,5.7
2017-09-26T16:04:37.876Z,5
2017-09-26T16:09:38.218Z,5.5
2017-09-26T16:14:38.554Z,5.1
2017-09-26T16:19:38.881Z,4.8
2017-09-26T16:24:39.233Z,4.8
2017-09-26T16:29:39.544Z,5.8
2017-09-26T16:34:39.901Z,4.3
2017-09-26T16:44:43.279Z,5
2017-09-26T16:49:40.927Z,5.1
2017-09-26T16:54:41.258Z,5.3
2017-09-26T16:59:44.010Z,5.3
2017-09-26T17:04:41.932Z,6
2017-09-26T17:09:42.259Z,5.3
2017-09-26T17:14:42.658Z,4.9
2017-09-26T17:19:43.695Z,4.6
2017-09-26T17:24:43.267Z,5.1
2017-09-26T17:29:43.589Z,4.7
2017-09-26T17:34:43.935Z,5.8
2017-09-26T17:39:44.285Z,5.3
2017-09-26T17:44:49.332Z,6.1
2017-09-26T17:49:44.947Z,5.6
2017-09-26T17:54:45.361Z,5.4
2017-09-26T17:59:45.611Z,5.5
2017-09-26T18:04:45.998Z,6.9
2017-09-26T18:09:46.311Z,6.9
2017-09-26T18:14:46.764Z,7.1
2017-09-26T18:19:46.977Z,8.1
2017-09-26T18:24:47.324Z,7.9
2017-09-26T18:29:47.654Z,8.7
2017-09-26T18:34:47.987Z,9.8
2017-09-26T18:39:48.309Z,10.1
2017-09-26T18:44:51.353Z,10.1
2017-09-26T18:49:48.992Z,10.1
2017-09-26T18:54:49.358Z,11.9
2017-09-26T18:59:49.678Z,11.4
2017-09-26T19:04:50.023Z,10.4
2017-09-26T19:09:50.360Z,12.4
2017-09-26T19:14:50.678Z,11.2
2017-09-26T19:19:51.034Z,11.7
2017-09-26T19:24:59.688Z,11.8
2017-09-26T19:29:51.692Z,12.4
2017-09-26T19:34:52.037Z,11.4
2017-09-26T19:39:52.513Z,10.9
2017-09-26T19:44:52.713Z,12.2
2017-09-26T19:49:54.265Z,11.7
2017-09-26T19:54:53.490Z,13.7
2017-09-26T19:59:53.717Z,12.9
2017-09-26T20:04:54.050Z,12.5
2017-09-26T20:09:55.327Z,13.6
2017-09-26T20:14:54.725Z,14.6
2017-09-26T20:19:55.073Z,14.3
2017-09-26T20:24:56.703Z,14.5
2017-09-26T20:29:55.749Z,14.3
2017-09-26T20:34:56.084Z,14.4
2017-09-26T20:39:56.435Z,13.9
2017-09-26T20:44:57.568Z,14.9
2017-09-26T20:50:00.949Z,15.2
2017-09-26T20:54:58.142Z,14.6
2017-09-26T20:59:58.743Z,15.2
2017-09-26T21:05:05.342Z,14.3
2017-09-26T21:09:58.429Z,15.6
2017-09-26T21:14:58.779Z,15.9
2017-09-26T21:20:01.327Z,13.7
2017-09-26T21:24:59.435Z,15.9
2017-09-26T21:29:59.798Z,15.7
2017-09-26T21:35:00.138Z,16.7
2017-09-26T21:40:00.448Z,16.4
2017-09-26T21:45:00.804Z,16.9
2017-09-26T21:50:01.140Z,17.8
2017-09-26T21:55:01.544Z,17.6
2017-09-26T22:00:04.301Z,16.6
2017-09-26T22:05:02.156Z,18.9
2017-09-26T22:10:02.484Z,18.4
2017-09-26T22:15:19.799Z,19.4
2017-09-26T22:20:06.807Z,19.4
2017-09-26T22:25:03.498Z,21.3
2017-09-26T22:30:05.265Z,20
2017-09-26T22:35:04.177Z,19.4
2017-09-26T22:40:04.512Z,20.4
2017-09-26T22:45:07.453Z,20.1
2017-09-26T22:50:05.185Z,19.2
2017-09-26T22:55:05.526Z,19.9
2017-09-26T23:00:05.860Z,22.5
2017-09-26T23:05:06.192Z,21
2017-09-26T23:10:06.518Z,20.7
2017-09-26T23:15:06.869Z,21.8
2017-09-26T23:20:07.205Z,20.6
2017-09-26T23:25:08.142Z,24.3
2017-09-26T23:30:07.863Z,21.5
2017-09-26T23:35:08.249Z,23.5
2017-09-26T23:40:08.544Z,23
2017-09-26T23:45:08.893Z,23.9
2017-09-26T23:50:09.221Z,24.6
2017-09-26T23:55:09.741Z,24.8
